sensor_id;sensor_type;location;lat;lon;timestamp;P1;durP1;ratioP1;P2;durP2;ratioP2
70558;SDS011;58108;48.094;11.838;2023-02-18T00:01:01;3.67;;;1.00;;
70558;SDS011;58108;48.094;11.838;2023-02-18T00:03:28;2.83;;;0.70;;
70558;SDS011;58108;48.094;11.838;2023-02-18T00:05:54;3.13;;;0.77;;
70558;SDS011;58108;48.094;11.838;2023-02-18T00:08:19;3.70;;;0.63;;
70558;SDS011;58108;48.094;11.838;2023-02-18T00:10:45;2.73;;;0.70;;
70558;SDS011;58108;48.094;11.838;2023-02-18T00:13:10;4.33;;;0.90;;
70558;SDS011;58108;48.094;11.838;2023-02-18T00:15:36;2.63;;;0.80;;
70558;SDS011;58108;48.094;11.838;2023-02-18T00:18:01;4.20;;;0.80;;
70558;SDS011;58108;48.094;11.838;2023-02-18T00:20:26;2.73;;;0.77;;
70558;SDS011;58108;48.094;11.838;2023-02-18T00:22:51;3.30;;;1.10;;
70558;SDS011;58108;48.094;11.838;2023-02-18T00:25:16;2.87;;;0.70;;
70558;SDS011;58108;48.094;11.838;2023-02-18T00:27:42;2.43;;;0.60;;
70558;SDS011;58108;48.094;11.838;2023-02-18T00:30:07;2.83;;;0.90;;
70558;SDS011;58108;48.094;11.838;2023-02-18T00:32:33;2.60;;;0.63;;
70558;SDS011;58108;48.094;11.838;2023-02-18T00:34:59;2.72;;;1.00;;
70558;SDS011;58108;48.094;11.838;2023-02-18T00:37:24;2.90;;;0.60;;
70558;SDS011;58108;48.094;11.838;2023-02-18T00:39:49;3.50;;;0.60;;
70558;SDS011;58108;48.094;11.838;2023-02-18T00:42:14;3.93;;;0.90;;
70558;SDS011;58108;48.094;11.838;2023-02-18T00:44:39;2.80;;;0.70;;
70558;SDS011;58108;48.094;11.838;2023-02-18T00:47:05;2.97;;;0.70;;
70558;SDS011;58108;48.094;11.838;2023-02-18T00:49:30;2.07;;;0.60;;
70558;SDS011;58108;48.094;11.838;2023-02-18T00:51:55;3.43;;;0.60;;
70558;SDS011;58108;48.094;11.838;2023-02-18T00:54:20;1.70;;;0.50;;
70558;SDS011;58108;48.094;11.838;2023-02-18T00:56:45;2.07;;;0.57;;
70558;SDS011;58108;48.094;11.838;2023-02-18T00:59:11;2.33;;;0.50;;
70558;SDS011;58108;48.094;11.838;2023-02-18T01:01:36;3.53;;;0.60;;
70558;SDS011;58108;48.094;11.838;2023-02-18T01:04:01;1.83;;;0.30;;
70558;SDS011;58108;48.094;11.838;2023-02-18T01:06:26;2.17;;;0.30;;
70558;SDS011;58108;48.094;11.838;2023-02-18T01:08:51;2.77;;;0.33;;
70558;SDS011;58108;48.094;11.838;2023-02-18T01:11:17;1.47;;;0.30;;
70558;SDS011;58108;48.094;11.838;2023-02-18T01:13:42;2.27;;;0.53;;
70558;SDS011;58108;48.094;11.838;2023-02-18T01:16:08;2.43;;;0.50;;
70558;SDS011;58108;48.094;11.838;2023-02-18T01:18:33;2.90;;;0.45;;
70558;SDS011;58108;48.094;11.838;2023-02-18T01:20:58;2.50;;;0.68;;
70558;SDS011;58108;48.094;11.838;2023-02-18T01:23:24;2.17;;;0.50;;
70558;SDS011;58108;48.094;11.838;2023-02-18T01:25:49;2.78;;;0.93;;
70558;SDS011;58108;48.094;11.838;2023-02-18T01:28:14;2.00;;;0.60;;
70558;SDS011;58108;48.094;11.838;2023-02-18T01:30:40;1.93;;;0.43;;
70558;SDS011;58108;48.094;11.838;2023-02-18T01:33:06;2.38;;;0.40;;
70558;SDS011;58108;48.094;11.838;2023-02-18T01:35:31;2.78;;;0.65;;
70558;SDS011;58108;48.094;11.838;2023-02-18T01:37:56;3.80;;;0.67;;
70558;SDS011;58108;48.094;11.838;2023-02-18T01:40:23;2.10;;;0.60;;
70558;SDS011;58108;48.094;11.838;2023-02-18T01:42:49;2.15;;;0.50;;
70558;SDS011;58108;48.094;11.838;2023-02-18T01:48:01;2.63;;;0.45;;
70558;SDS011;58108;48.094;11.838;2023-02-18T01:50:28;2.25;;;0.70;;
70558;SDS011;58108;48.094;11.838;2023-02-18T01:52:53;3.00;;;0.80;;
70558;SDS011;58108;48.094;11.838;2023-02-18T01:55:18;2.40;;;0.90;;
70558;SDS011;58108;48.094;11.838;2023-02-18T01:57:43;3.00;;;0.50;;
70558;SDS011;58108;48.094;11.838;2023-02-18T02:00:13;3.17;;;0.90;;
70558;SDS011;58108;48.094;11.838;2023-02-18T02:02:39;4.88;;;0.65;;
70558;SDS011;58108;48.094;11.838;2023-02-18T02:05:06;2.35;;;0.50;;
70558;SDS011;58108;48.094;11.838;2023-02-18T02:07:32;3.33;;;0.63;;
70558;SDS011;58108;48.094;11.838;2023-02-18T02:09:57;2.87;;;0.80;;
70558;SDS011;58108;48.094;11.838;2023-02-18T02:20:12;4.13;;;0.63;;
70558;SDS011;58108;48.094;11.838;2023-02-18T02:35:23;1.55;;;0.35;;
70558;SDS011;58108;48.094;11.838;2023-02-18T02:37:54;2.38;;;0.50;;
70558;SDS011;58108;48.094;11.838;2023-02-18T02:40:23;1.25;;;0.20;;
70558;SDS011;58108;48.094;11.838;2023-02-18T02:45:28;2.25;;;0.30;;
70558;SDS011;58108;48.094;11.838;2023-02-18T02:50:37;3.67;;;0.40;;
70558;SDS011;58108;48.094;11.838;2023-02-18T02:53:05;1.98;;;0.47;;
70558;SDS011;58108;48.094;11.838;2023-02-18T02:55:35;1.77;;;0.35;;
70558;SDS011;58108;48.094;11.838;2023-02-18T02:58:00;2.17;;;0.43;;
70558;SDS011;58108;48.094;11.838;2023-02-18T03:05:53;1.77;;;0.40;;
70558;SDS011;58108;48.094;11.838;2023-02-18T03:13:28;2.20;;;0.30;;
70558;SDS011;58108;48.094;11.838;2023-02-18T03:15:56;2.42;;;0.30;;
70558;SDS011;58108;48.094;11.838;2023-02-18T03:23:52;2.78;;;0.40;;
70558;SDS011;58108;48.094;11.838;2023-02-18T03:26:18;2.93;;;0.40;;
70558;SDS011;58108;48.094;11.838;2023-02-18T03:28:44;2.25;;;0.50;;
70558;SDS011;58108;48.094;11.838;2023-02-18T03:31:11;2.22;;;0.50;;
70558;SDS011;58108;48.094;11.838;2023-02-18T03:33:44;1.40;;;0.30;;
70558;SDS011;58108;48.094;11.838;2023-02-18T03:36:10;2.45;;;0.40;;
70558;SDS011;58108;48.094;11.838;2023-02-18T03:38:37;2.53;;;0.30;;
70558;SDS011;58108;48.094;11.838;2023-02-18T03:41:04;1.53;;;0.23;;
70558;SDS011;58108;48.094;11.838;2023-02-18T03:43:29;1.52;;;0.20;;
70558;SDS011;58108;48.094;11.838;2023-02-18T03:45:55;1.43;;;0.40;;
70558;SDS011;58108;48.094;11.838;2023-02-18T03:48:20;1.30;;;0.20;;
70558;SDS011;58108;48.094;11.838;2023-02-18T03:50:45;2.50;;;0.43;;
70558;SDS011;58108;48.094;11.838;2023-02-18T03:53:10;1.80;;;0.30;;
70558;SDS011;58108;48.094;11.838;2023-02-18T03:55:36;3.67;;;0.37;;
70558;SDS011;58108;48.094;11.838;2023-02-18T03:58:01;1.03;;;0.20;;
70558;SDS011;58108;48.094;11.838;2023-02-18T04:00:26;1.87;;;0.50;;
70558;SDS011;58108;48.094;11.838;2023-02-18T04:02:51;1.37;;;0.20;;
70558;SDS011;58108;48.094;11.838;2023-02-18T04:05:16;2.17;;;0.40;;
70558;SDS011;58108;48.094;11.838;2023-02-18T04:07:42;2.07;;;0.30;;
70558;SDS011;58108;48.094;11.838;2023-02-18T04:10:07;1.67;;;0.40;;
70558;SDS011;58108;48.094;11.838;2023-02-18T04:12:33;1.83;;;0.32;;
70558;SDS011;58108;48.094;11.838;2023-02-18T04:14:58;1.70;;;0.40;;
70558;SDS011;58108;48.094;11.838;2023-02-18T04:17:23;2.03;;;0.50;;
70558;SDS011;58108;48.094;11.838;2023-02-18T04:19:48;2.07;;;0.50;;
70558;SDS011;58108;48.094;11.838;2023-02-18T04:22:13;3.57;;;0.50;;
70558;SDS011;58108;48.094;11.838;2023-02-18T04:24:39;2.80;;;0.50;;
70558;SDS011;58108;48.094;11.838;2023-02-18T04:27:04;1.87;;;0.50;;
70558;SDS011;58108;48.094;11.838;2023-02-18T04:29:29;1.90;;;0.47;;
70558;SDS011;58108;48.094;11.838;2023-02-18T04:31:54;3.30;;;0.60;;
70558;SDS011;58108;48.094;11.838;2023-02-18T04:34:19;2.13;;;0.50;;
70558;SDS011;58108;48.094;11.838;2023-02-18T04:36:45;2.00;;;0.40;;
70558;SDS011;58108;48.094;11.838;2023-02-18T04:39:10;2.27;;;0.50;;
70558;SDS011;58108;48.094;11.838;2023-02-18T04:41:35;1.60;;;0.40;;
70558;SDS011;58108;48.094;11.838;2023-02-18T04:44:00;2.40;;;0.33;;
70558;SDS011;58108;48.094;11.838;2023-02-18T04:46:26;2.60;;;0.47;;
70558;SDS011;58108;48.094;11.838;2023-02-18T04:48:51;2.27;;;0.47;;
70558;SDS011;58108;48.094;11.838;2023-02-18T04:51:16;2.27;;;0.60;;
70558;SDS011;58108;48.094;11.838;2023-02-18T04:53:41;2.27;;;0.70;;
70558;SDS011;58108;48.094;11.838;2023-02-18T04:56:06;1.73;;;0.40;;
70558;SDS011;58108;48.094;11.838;2023-02-18T04:58:32;1.63;;;0.30;;
70558;SDS011;58108;48.094;11.838;2023-02-18T05:00:58;1.87;;;0.23;;
70558;SDS011;58108;48.094;11.838;2023-02-18T05:03:23;1.60;;;0.30;;
70558;SDS011;58108;48.094;11.838;2023-02-18T05:05:48;2.10;;;0.40;;
70558;SDS011;58108;48.094;11.838;2023-02-18T05:08:13;1.90;;;0.47;;
70558;SDS011;58108;48.094;11.838;2023-02-18T05:10:40;1.92;;;0.20;;
70558;SDS011;58108;48.094;11.838;2023-02-18T05:13:05;1.93;;;0.47;;
70558;SDS011;58108;48.094;11.838;2023-02-18T05:15:30;1.60;;;0.30;;
70558;SDS011;58108;48.094;11.838;2023-02-18T05:17:55;2.10;;;0.43;;
70558;SDS011;58108;48.094;11.838;2023-02-18T05:20:20;1.60;;;0.20;;
70558;SDS011;58108;48.094;11.838;2023-02-18T05:22:46;2.03;;;0.40;;
70558;SDS011;58108;48.094;11.838;2023-02-18T05:25:11;2.53;;;0.50;;
70558;SDS011;58108;48.094;11.838;2023-02-18T05:27:36;1.90;;;0.43;;
70558;SDS011;58108;48.094;11.838;2023-02-18T05:30:02;1.00;;;0.20;;
70558;SDS011;58108;48.094;11.838;2023-02-18T05:32:27;1.30;;;0.25;;
70558;SDS011;58108;48.094;11.838;2023-02-18T05:34:52;1.60;;;0.20;;
70558;SDS011;58108;48.094;11.838;2023-02-18T05:37:17;1.43;;;0.20;;
70558;SDS011;58108;48.094;11.838;2023-02-18T05:39:43;1.40;;;0.20;;
70558;SDS011;58108;48.094;11.838;2023-02-18T05:42:08;1.10;;;0.10;;
70558;SDS011;58108;48.094;11.838;2023-02-18T05:44:33;1.03;;;0.20;;
70558;SDS011;58108;48.094;11.838;2023-02-18T05:47:00;2.80;;;0.27;;
70558;SDS011;58108;48.094;11.838;2023-02-18T05:49:25;1.48;;;0.20;;
70558;SDS011;58108;48.094;11.838;2023-02-18T05:51:50;1.40;;;0.10;;
70558;SDS011;58108;48.094;11.838;2023-02-18T05:54:15;1.00;;;0.10;;
70558;SDS011;58108;48.094;11.838;2023-02-18T05:56:41;1.00;;;0.10;;
70558;SDS011;58108;48.094;11.838;2023-02-18T05:59:06;1.10;;;0.10;;
70558;SDS011;58108;48.094;11.838;2023-02-18T06:01:31;1.30;;;0.10;;
70558;SDS011;58108;48.094;11.838;2023-02-18T06:03:57;1.73;;;0.10;;
70558;SDS011;58108;48.094;11.838;2023-02-18T06:06:22;1.30;;;0.10;;
70558;SDS011;58108;48.094;11.838;2023-02-18T06:08:47;1.90;;;0.10;;
70558;SDS011;58108;48.094;11.838;2023-02-18T06:11:12;1.03;;;0.10;;
70558;SDS011;58108;48.094;11.838;2023-02-18T06:13:38;1.10;;;0.10;;
70558;SDS011;58108;48.094;11.838;2023-02-18T06:16:03;0.67;;;0.10;;
70558;SDS011;58108;48.094;11.838;2023-02-18T06:18:31;1.10;;;0.10;;
70558;SDS011;58108;48.094;11.838;2023-02-18T06:20:56;1.50;;;0.20;;
70558;SDS011;58108;48.094;11.838;2023-02-18T06:23:22;1.20;;;0.10;;
70558;SDS011;58108;48.094;11.838;2023-02-18T06:25:47;0.93;;;0.20;;
70558;SDS011;58108;48.094;11.838;2023-02-18T06:28:12;0.82;;;0.10;;
70558;SDS011;58108;48.094;11.838;2023-02-18T06:30:38;1.80;;;0.20;;
70558;SDS011;58108;48.094;11.838;2023-02-18T06:33:03;1.73;;;0.20;;
70558;SDS011;58108;48.094;11.838;2023-02-18T06:35:28;1.23;;;0.10;;
70558;SDS011;58108;48.094;11.838;2023-02-18T06:37:53;1.77;;;0.37;;
70558;SDS011;58108;48.094;11.838;2023-02-18T06:40:19;1.20;;;0.10;;
70558;SDS011;58108;48.094;11.838;2023-02-18T06:42:44;1.20;;;0.17;;
70558;SDS011;58108;48.094;11.838;2023-02-18T06:45:09;1.57;;;0.10;;
70558;SDS011;58108;48.094;11.838;2023-02-18T06:47:34;1.13;;;0.20;;
70558;SDS011;58108;48.094;11.838;2023-02-18T06:50:00;1.30;;;0.20;;
70558;SDS011;58108;48.094;11.838;2023-02-18T06:52:25;2.70;;;0.20;;
70558;SDS011;58108;48.094;11.838;2023-02-18T06:54:50;0.67;;;0.00;;
70558;SDS011;58108;48.094;11.838;2023-02-18T06:57:15;1.27;;;0.10;;
70558;SDS011;58108;48.094;11.838;2023-02-18T06:59:41;1.03;;;0.10;;
70558;SDS011;58108;48.094;11.838;2023-02-18T07:02:06;1.07;;;0.20;;
70558;SDS011;58108;48.094;11.838;2023-02-18T07:04:31;2.77;;;0.10;;
70558;SDS011;58108;48.094;11.838;2023-02-18T07:06:56;1.10;;;0.07;;
70558;SDS011;58108;48.094;11.838;2023-02-18T07:09:21;0.80;;;0.10;;
70558;SDS011;58108;48.094;11.838;2023-02-18T07:11:47;1.00;;;0.10;;
70558;SDS011;58108;48.094;11.838;2023-02-18T07:14:12;0.83;;;0.07;;
70558;SDS011;58108;48.094;11.838;2023-02-18T07:16:37;0.80;;;0.10;;
70558;SDS011;58108;48.094;11.838;2023-02-18T07:19:02;0.90;;;0.10;;
70558;SDS011;58108;48.094;11.838;2023-02-18T07:21:27;0.67;;;0.00;;
70558;SDS011;58108;48.094;11.838;2023-02-18T07:23:53;0.77;;;0.07;;
70558;SDS011;58108;48.094;11.838;2023-02-18T07:26:18;0.80;;;0.00;;
70558;SDS011;58108;48.094;11.838;2023-02-18T07:28:43;1.00;;;0.07;;
70558;SDS011;58108;48.094;11.838;2023-02-18T07:31:08;0.80;;;0.10;;
70558;SDS011;58108;48.094;11.838;2023-02-18T07:33:33;1.13;;;0.10;;
70558;SDS011;58108;48.094;11.838;2023-02-18T07:35:59;1.33;;;0.10;;
70558;SDS011;58108;48.094;11.838;2023-02-18T07:38:25;1.45;;;0.00;;
70558;SDS011;58108;48.094;11.838;2023-02-18T07:40:51;0.80;;;0.10;;
70558;SDS011;58108;48.094;11.838;2023-02-18T07:43:16;0.80;;;0.00;;
70558;SDS011;58108;48.094;11.838;2023-02-18T07:45:42;1.07;;;0.10;;
70558;SDS011;58108;48.094;11.838;2023-02-18T07:48:07;1.23;;;0.10;;
70558;SDS011;58108;48.094;11.838;2023-02-18T07:50:32;0.97;;;0.10;;
70558;SDS011;58108;48.094;11.838;2023-02-18T07:53:00;0.88;;;0.10;;
70558;SDS011;58108;48.094;11.838;2023-02-18T07:55:26;1.00;;;0.10;;
70558;SDS011;58108;48.094;11.838;2023-02-18T07:58:13;1.95;;;0.10;;
70558;SDS011;58108;48.094;11.838;2023-02-18T08:00:39;1.33;;;0.10;;
70558;SDS011;58108;48.094;11.838;2023-02-18T08:03:04;1.53;;;0.10;;
70558;SDS011;58108;48.094;11.838;2023-02-18T08:05:29;0.87;;;0.10;;
70558;SDS011;58108;48.094;11.838;2023-02-18T08:07:55;1.73;;;0.20;;
70558;SDS011;58108;48.094;11.838;2023-02-18T08:10:20;1.70;;;0.20;;
70558;SDS011;58108;48.094;11.838;2023-02-18T08:12:45;0.77;;;0.10;;
70558;SDS011;58108;48.094;11.838;2023-02-18T08:15:10;1.10;;;0.20;;
70558;SDS011;58108;48.094;11.838;2023-02-18T08:17:35;1.00;;;0.10;;
70558;SDS011;58108;48.094;11.838;2023-02-18T08:20:00;0.80;;;0.10;;
70558;SDS011;58108;48.094;11.838;2023-02-18T08:22:26;0.70;;;0.00;;
70558;SDS011;58108;48.094;11.838;2023-02-18T08:24:53;0.87;;;0.10;;
70558;SDS011;58108;48.094;11.838;2023-02-18T08:27:18;1.30;;;0.10;;
70558;SDS011;58108;48.094;11.838;2023-02-18T08:29:43;0.93;;;0.10;;
70558;SDS011;58108;48.094;11.838;2023-02-18T08:32:08;1.73;;;0.10;;
70558;SDS011;58108;48.094;11.838;2023-02-18T08:34:33;0.80;;;0.10;;
70558;SDS011;58108;48.094;11.838;2023-02-18T08:37:00;1.70;;;0.10;;
70558;SDS011;58108;48.094;11.838;2023-02-18T08:39:25;1.00;;;0.10;;
70558;SDS011;58108;48.094;11.838;2023-02-18T08:41:51;2.23;;;0.30;;
70558;SDS011;58108;48.094;11.838;2023-02-18T08:44:16;5.10;;;0.57;;
70558;SDS011;58108;48.094;11.838;2023-02-18T08:46:41;1.03;;;0.10;;
70558;SDS011;58108;48.094;11.838;2023-02-18T08:49:06;0.80;;;0.00;;
70558;SDS011;58108;48.094;11.838;2023-02-18T08:51:32;1.33;;;0.20;;
70558;SDS011;58108;48.094;11.838;2023-02-18T08:53:57;1.00;;;0.10;;
70558;SDS011;58108;48.094;11.838;2023-02-18T08:56:22;1.00;;;0.10;;
70558;SDS011;58108;48.094;11.838;2023-02-18T08:58:47;1.70;;;0.10;;
70558;SDS011;58108;48.094;11.838;2023-02-18T09:01:14;1.00;;;0.10;;
70558;SDS011;58108;48.094;11.838;2023-02-18T09:03:39;1.63;;;0.10;;
70558;SDS011;58108;48.094;11.838;2023-02-18T09:06:04;2.40;;;0.10;;
70558;SDS011;58108;48.094;11.838;2023-02-18T09:08:30;1.03;;;0.10;;
70558;SDS011;58108;48.094;11.838;2023-02-18T09:10:58;1.50;;;0.20;;
70558;SDS011;58108;48.094;11.838;2023-02-18T09:13:24;1.40;;;0.15;;
70558;SDS011;58108;48.094;11.838;2023-02-18T09:15:57;0.97;;;0.10;;
70558;SDS011;58108;48.094;11.838;2023-02-18T09:18:22;3.83;;;0.20;;
70558;SDS011;58108;48.094;11.838;2023-02-18T09:20:47;1.53;;;0.10;;
70558;SDS011;58108;48.094;11.838;2023-02-18T09:23:12;1.20;;;0.20;;
70558;SDS011;58108;48.094;11.838;2023-02-18T09:25:39;1.30;;;0.20;;
70558;SDS011;58108;48.094;11.838;2023-02-18T09:28:04;2.17;;;0.23;;
70558;SDS011;58108;48.094;11.838;2023-02-18T09:30:30;1.43;;;0.20;;
70558;SDS011;58108;48.094;11.838;2023-02-18T09:32:55;1.30;;;0.10;;
70558;SDS011;58108;48.094;11.838;2023-02-18T09:35:20;1.33;;;0.10;;
70558;SDS011;58108;48.094;11.838;2023-02-18T09:37:45;2.57;;;0.30;;
70558;SDS011;58108;48.094;11.838;2023-02-18T09:40:19;1.20;;;0.20;;
70558;SDS011;58108;48.094;11.838;2023-02-18T09:42:45;1.93;;;0.30;;
70558;SDS011;58108;48.094;11.838;2023-02-18T09:45:10;1.60;;;0.30;;
70558;SDS011;58108;48.094;11.838;2023-02-18T09:47:38;1.98;;;0.20;;
70558;SDS011;58108;48.094;11.838;2023-02-18T09:50:17;2.25;;;0.20;;
70558;SDS011;58108;48.094;11.838;2023-02-18T09:52:43;2.25;;;0.20;;
70558;SDS011;58108;48.094;11.838;2023-02-18T09:55:24;1.23;;;0.20;;
70558;SDS011;58108;48.094;11.838;2023-02-18T09:57:56;1.20;;;0.10;;
70558;SDS011;58108;48.094;11.838;2023-02-18T10:00:29;2.70;;;0.20;;
70558;SDS011;58108;48.094;11.838;2023-02-18T10:02:56;1.30;;;0.20;;
70558;SDS011;58108;48.094;11.838;2023-02-18T10:05:22;1.50;;;0.20;;
70558;SDS011;58108;48.094;11.838;2023-02-18T10:07:48;1.05;;;0.13;;
70558;SDS011;58108;48.094;11.838;2023-02-18T10:10:17;1.00;;;0.20;;
70558;SDS011;58108;48.094;11.838;2023-02-18T10:12:44;1.65;;;0.20;;
70558;SDS011;58108;48.094;11.838;2023-02-18T10:15:16;2.10;;;0.27;;
70558;SDS011;58108;48.094;11.838;2023-02-18T10:17:42;1.67;;;0.20;;
70558;SDS011;58108;48.094;11.838;2023-02-18T10:20:09;3.10;;;0.37;;
70558;SDS011;58108;48.094;11.838;2023-02-18T10:22:36;1.13;;;0.15;;
70558;SDS011;58108;48.094;11.838;2023-02-18T10:25:02;2.33;;;0.30;;
70558;SDS011;58108;48.094;11.838;2023-02-18T10:27:32;1.48;;;0.20;;
70558;SDS011;58108;48.094;11.838;2023-02-18T10:30:15;1.27;;;0.20;;
70558;SDS011;58108;48.094;11.838;2023-02-18T10:32:44;1.40;;;0.20;;
70558;SDS011;58108;48.094;11.838;2023-02-18T10:37:56;1.85;;;0.20;;
70558;SDS011;58108;48.094;11.838;2023-02-18T10:40:34;1.60;;;0.20;;
70558;SDS011;58108;48.094;11.838;2023-02-18T10:45:41;1.70;;;0.30;;
70558;SDS011;58108;48.094;11.838;2023-02-18T10:48:24;1.88;;;0.20;;
70558;SDS011;58108;48.094;11.838;2023-02-18T10:50:52;1.38;;;0.10;;
70558;SDS011;58108;48.094;11.838;2023-02-18T10:53:33;1.53;;;0.10;;
70558;SDS011;58108;48.094;11.838;2023-02-18T10:55:59;2.15;;;0.20;;
70558;SDS011;58108;48.094;11.838;2023-02-18T10:58:32;2.03;;;0.20;;
70558;SDS011;58108;48.094;11.838;2023-02-18T11:00:59;1.73;;;0.20;;
70558;SDS011;58108;48.094;11.838;2023-02-18T11:03:26;1.02;;;0.10;;
70558;SDS011;58108;48.094;11.838;2023-02-18T11:06:02;1.67;;;0.20;;
70558;SDS011;58108;48.094;11.838;2023-02-18T11:08:38;1.63;;;0.23;;
70558;SDS011;58108;48.094;11.838;2023-02-18T11:11:12;0.90;;;0.20;;
70558;SDS011;58108;48.094;11.838;2023-02-18T11:13:39;1.85;;;0.20;;
70558;SDS011;58108;48.094;11.838;2023-02-18T11:16:05;1.60;;;0.23;;
70558;SDS011;58108;48.094;11.838;2023-02-18T11:18:37;0.97;;;0.10;;
70558;SDS011;58108;48.094;11.838;2023-02-18T11:21:05;1.80;;;0.32;;
70558;SDS011;58108;48.094;11.838;2023-02-18T11:23:31;1.08;;;0.10;;
70558;SDS011;58108;48.094;11.838;2023-02-18T11:26:05;1.42;;;0.10;;
70558;SDS011;58108;48.094;11.838;2023-02-18T11:28:38;1.35;;;0.10;;
70558;SDS011;58108;48.094;11.838;2023-02-18T11:31:05;1.47;;;0.20;;
70558;SDS011;58108;48.094;11.838;2023-02-18T11:33:32;2.85;;;0.20;;
70558;SDS011;58108;48.094;11.838;2023-02-18T11:35:58;0.90;;;0.10;;
70558;SDS011;58108;48.094;11.838;2023-02-18T11:38:34;1.67;;;0.20;;
70558;SDS011;58108;48.094;11.838;2023-02-18T11:41:07;2.00;;;0.30;;
70558;SDS011;58108;48.094;11.838;2023-02-18T11:43:33;0.98;;;0.10;;
70558;SDS011;58108;48.094;11.838;2023-02-18T11:46:18;1.40;;;0.20;;
70558;SDS011;58108;48.094;11.838;2023-02-18T11:48:44;1.30;;;0.20;;
70558;SDS011;58108;48.094;11.838;2023-02-18T11:51:17;1.88;;;0.32;;
70558;SDS011;58108;48.094;11.838;2023-02-18T11:53:58;1.27;;;0.20;;
70558;SDS011;58108;48.094;11.838;2023-02-18T11:56:24;1.70;;;0.20;;
70558;SDS011;58108;48.094;11.838;2023-02-18T11:58:49;1.13;;;0.17;;
70558;SDS011;58108;48.094;11.838;2023-02-18T12:01:36;1.27;;;0.20;;
70558;SDS011;58108;48.094;11.838;2023-02-18T12:06:34;1.98;;;0.20;;
70558;SDS011;58108;48.094;11.838;2023-02-18T12:11:55;1.10;;;0.20;;
70558;SDS011;58108;48.094;11.838;2023-02-18T12:14:21;2.45;;;0.30;;
70558;SDS011;58108;48.094;11.838;2023-02-18T12:21:46;1.20;;;0.20;;
70558;SDS011;58108;48.094;11.838;2023-02-18T12:24:22;1.13;;;0.22;;
70558;SDS011;58108;48.094;11.838;2023-02-18T12:44:47;4.32;;;0.40;;
70558;SDS011;58108;48.094;11.838;2023-02-18T12:52:10;1.25;;;0.15;;
70558;SDS011;58108;48.094;11.838;2023-02-18T13:02:44;1.88;;;0.30;;
70558;SDS011;58108;48.094;11.838;2023-02-18T13:08:04;1.40;;;0.20;;
70558;SDS011;58108;48.094;11.838;2023-02-18T13:13:10;1.77;;;0.20;;
70558;SDS011;58108;48.094;11.838;2023-02-18T13:15:38;0.98;;;0.20;;
70558;SDS011;58108;48.094;11.838;2023-02-18T13:18:05;1.48;;;0.20;;
70558;SDS011;58108;48.094;11.838;2023-02-18T13:23:21;1.92;;;0.20;;
70558;SDS011;58108;48.094;11.838;2023-02-18T13:25:48;1.25;;;0.17;;
70558;SDS011;58108;48.094;11.838;2023-02-18T13:28:27;1.55;;;0.20;;
70558;SDS011;58108;48.094;11.838;2023-02-18T13:31:14;1.15;;;0.20;;
70558;SDS011;58108;48.094;11.838;2023-02-18T13:36:27;1.00;;;0.10;;
70558;SDS011;58108;48.094;11.838;2023-02-18T13:41:25;1.33;;;0.10;;
70558;SDS011;58108;48.094;11.838;2023-02-18T13:43:51;2.40;;;0.20;;
70558;SDS011;58108;48.094;11.838;2023-02-18T13:46:19;1.03;;;0.20;;
70558;SDS011;58108;48.094;11.838;2023-02-18T13:48:47;2.67;;;0.20;;
70558;SDS011;58108;48.094;11.838;2023-02-18T13:51:14;4.45;;;0.35;;
70558;SDS011;58108;48.094;11.838;2023-02-18T13:53:40;2.45;;;0.40;;
70558;SDS011;58108;48.094;11.838;2023-02-18T13:56:18;1.40;;;0.30;;
70558;SDS011;58108;48.094;11.838;2023-02-18T13:58:51;1.37;;;0.30;;
70558;SDS011;58108;48.094;11.838;2023-02-18T14:01:22;2.15;;;0.30;;
70558;SDS011;58108;48.094;11.838;2023-02-18T14:03:58;1.83;;;0.30;;
70558;SDS011;58108;48.094;11.838;2023-02-18T14:06:25;1.83;;;0.30;;
70558;SDS011;58108;48.094;11.838;2023-02-18T14:08:51;2.55;;;0.20;;
70558;SDS011;58108;48.094;11.838;2023-02-18T14:16:12;1.77;;;0.20;;
70558;SDS011;58108;48.094;11.838;2023-02-18T14:33:30;1.30;;;0.20;;
70558;SDS011;58108;48.094;11.838;2023-02-18T14:36:01;1.80;;;0.30;;
70558;SDS011;58108;48.094;11.838;2023-02-18T14:42:01;1.67;;;0.20;;
70558;SDS011;58108;48.094;11.838;2023-02-18T14:49:11;1.80;;;0.40;;
70558;SDS011;58108;48.094;11.838;2023-02-18T14:51:41;2.23;;;0.20;;
70558;SDS011;58108;48.094;11.838;2023-02-18T14:54:10;1.52;;;0.20;;
70558;SDS011;58108;48.094;11.838;2023-02-18T14:56:38;1.83;;;0.30;;
70558;SDS011;58108;48.094;11.838;2023-02-18T14:59:06;3.17;;;0.30;;
70558;SDS011;58108;48.094;11.838;2023-02-18T15:01:33;1.93;;;0.30;;
70558;SDS011;58108;48.094;11.838;2023-02-18T15:03:59;1.52;;;0.22;;
70558;SDS011;58108;48.094;11.838;2023-02-18T15:08:54;1.83;;;0.30;;
70558;SDS011;58108;48.094;11.838;2023-02-18T15:11:20;1.20;;;0.20;;
70558;SDS011;58108;48.094;11.838;2023-02-18T15:13:46;1.40;;;0.30;;
70558;SDS011;58108;48.094;11.838;2023-02-18T15:16:19;1.40;;;0.20;;
70558;SDS011;58108;48.094;11.838;2023-02-18T15:18:50;3.17;;;0.20;;
70558;SDS011;58108;48.094;11.838;2023-02-18T15:21:19;1.63;;;0.20;;
70558;SDS011;58108;48.094;11.838;2023-02-18T15:23:45;1.42;;;0.20;;
70558;SDS011;58108;48.094;11.838;2023-02-18T15:26:14;2.70;;;0.20;;
70558;SDS011;58108;48.094;11.838;2023-02-18T15:28:59;1.52;;;0.30;;
70558;SDS011;58108;48.094;11.838;2023-02-18T15:31:25;1.30;;;0.17;;
70558;SDS011;58108;48.094;11.838;2023-02-18T15:33:51;1.33;;;0.20;;
70558;SDS011;58108;48.094;11.838;2023-02-18T15:36:16;1.97;;;0.30;;
70558;SDS011;58108;48.094;11.838;2023-02-18T15:38:41;1.93;;;0.20;;
70558;SDS011;58108;48.094;11.838;2023-02-18T15:41:09;2.27;;;0.40;;
70558;SDS011;58108;48.094;11.838;2023-02-18T15:43:35;1.60;;;0.30;;
70558;SDS011;58108;48.094;11.838;2023-02-18T15:46:01;2.95;;;0.20;;
70558;SDS011;58108;48.094;11.838;2023-02-18T15:48:38;2.43;;;0.20;;
70558;SDS011;58108;48.094;11.838;2023-02-18T15:51:10;2.25;;;0.20;;
70558;SDS011;58108;48.094;11.838;2023-02-18T15:53:37;2.47;;;0.25;;
70558;SDS011;58108;48.094;11.838;2023-02-18T15:56:05;1.30;;;0.20;;
70558;SDS011;58108;48.094;11.838;2023-02-18T15:58:31;1.55;;;0.30;;
70558;SDS011;58108;48.094;11.838;2023-02-18T16:00:59;2.77;;;0.20;;
70558;SDS011;58108;48.094;11.838;2023-02-18T16:03:25;1.50;;;0.20;;
70558;SDS011;58108;48.094;11.838;2023-02-18T16:06:05;0.55;;;0.08;;
70558;SDS011;58108;48.094;11.838;2023-02-18T16:08:31;1.38;;;0.20;;
70558;SDS011;58108;48.094;11.838;2023-02-18T16:10:58;2.20;;;0.30;;
70558;SDS011;58108;48.094;11.838;2023-02-18T16:13:24;1.33;;;0.20;;
70558;SDS011;58108;48.094;11.838;2023-02-18T16:15:50;1.50;;;0.20;;
70558;SDS011;58108;48.094;11.838;2023-02-18T16:18:20;1.08;;;0.10;;
70558;SDS011;58108;48.094;11.838;2023-02-18T16:20:51;1.15;;;0.20;;
70558;SDS011;58108;48.094;11.838;2023-02-18T16:23:17;2.05;;;0.20;;
70558;SDS011;58108;48.094;11.838;2023-02-18T16:25:44;1.80;;;0.37;;
70558;SDS011;58108;48.094;11.838;2023-02-18T16:28:21;1.35;;;0.20;;
70558;SDS011;58108;48.094;11.838;2023-02-18T16:30:46;1.10;;;0.10;;
70558;SDS011;58108;48.094;11.838;2023-02-18T16:33:12;3.13;;;0.30;;
70558;SDS011;58108;48.094;11.838;2023-02-18T16:35:37;1.50;;;0.20;;
70558;SDS011;58108;48.094;11.838;2023-02-18T16:38:02;1.00;;;0.10;;
70558;SDS011;58108;48.094;11.838;2023-02-18T16:40:34;1.27;;;0.20;;
70558;SDS011;58108;48.094;11.838;2023-02-18T16:43:00;2.25;;;0.20;;
70558;SDS011;58108;48.094;11.838;2023-02-18T16:45:37;1.17;;;0.15;;
70558;SDS011;58108;48.094;11.838;2023-02-18T16:48:03;1.20;;;0.20;;